createdAt,value
2023-01-06T00:01:19.565Z,101658.53
2023-01-06T00:03:51.759Z,101651.63
2023-01-06T00:06:20.554Z,101653.09
2023-01-06T00:08:47.740Z,101652.34
2023-01-06T00:11:15.897Z,101653.53
2023-01-06T00:13:43.188Z,101665.22
2023-01-06T00:16:15.758Z,101665.25
2023-01-06T00:18:43.671Z,101663.72
2023-01-06T00:21:11.749Z,101671.19
2023-01-06T00:23:39.170Z,101667.88
2023-01-06T00:26:07.777Z,101670.66
2023-01-06T00:28:35.527Z,101676.19
2023-01-06T00:31:08.387Z,101679.59
2023-01-06T00:33:36.567Z,101676.19
2023-01-06T00:36:04.542Z,101682.09
2023-01-06T00:38:33.044Z,101679.03
2023-01-06T00:41:03.711Z,101688.56
2023-01-06T00:43:31.802Z,101686.03
2023-01-06T00:46:01.897Z,101687.63
2023-01-06T00:48:29.235Z,101686.19
2023-01-06T00:51:02.699Z,101677.72
2023-01-06T00:53:31.327Z,101681.19
2023-01-06T00:56:02.192Z,101681.97
2023-01-06T00:58:30.905Z,101679.97
2023-01-06T01:00:58.439Z,101691.91
2023-01-06T01:03:25.814Z,101691.66
2023-01-06T01:05:53.042Z,101692.22
2023-01-06T01:08:20.356Z,101684.50
2023-01-06T01:10:47.567Z,101684.78
2023-01-06T01:13:15.047Z,101684.09
2023-01-06T01:15:42.241Z,101688.19
2023-01-06T01:18:09.499Z,101682.50
2023-01-06T01:20:36.870Z,101676.19
2023-01-06T01:23:04.043Z,101677.72
2023-01-06T01:25:31.287Z,101670.53
2023-01-06T01:27:58.544Z,101668.69
2023-01-06T01:30:25.871Z,101672.03
2023-01-06T01:32:53.154Z,101664.56
2023-01-06T01:35:20.498Z,101666.31
2023-01-06T01:37:48.294Z,101660.19
2023-01-06T01:40:16.568Z,101663.47
2023-01-06T01:42:43.811Z,101660.97
2023-01-06T01:45:23.163Z,101656.13
2023-01-06T01:48:03.815Z,101652.44
2023-01-06T01:50:36.344Z,101649.25
2023-01-06T01:53:16.016Z,101646.47
2023-01-06T01:55:43.620Z,101649.06
2023-01-06T01:58:14.848Z,101648.47
2023-01-06T02:00:43.787Z,101652.75
2023-01-06T02:03:12.455Z,101649.63
2023-01-06T02:05:41.723Z,101649.22
2023-01-06T02:08:28.722Z,101645.50
2023-01-06T02:10:56.893Z,101641.97
2023-01-06T02:13:25.688Z,101629.47
2023-01-06T02:15:58.754Z,101627.59
2023-01-06T02:18:44.866Z,101633.31
2023-01-06T02:21:12.403Z,101628.13
2023-01-06T02:23:45.956Z,101634.06
2023-01-06T02:26:19.292Z,101641.63
2023-01-06T02:29:20.430Z,101643.34
2023-01-06T02:32:07.545Z,101644.31
2023-01-06T02:34:42.789Z,101649.78
2023-01-06T02:37:13.029Z,101648.75
2023-01-06T02:39:46.328Z,101647.34
2023-01-06T02:42:24.363Z,101640.81
2023-01-06T02:45:26.745Z,101634.63
2023-01-06T02:48:04.025Z,101620.13
2023-01-06T02:50:56.251Z,101629.78
2023-01-06T02:53:51.622Z,101632.03
2023-01-06T02:56:22.256Z,101625.25
2023-01-06T02:59:08.126Z,101617.59
2023-01-06T03:01:42.080Z,101613.53
2023-01-06T03:04:26.338Z,101601.72
2023-01-06T03:06:55.612Z,101597.88
2023-01-06T03:09:28.892Z,101600.13
2023-01-06T03:11:56.319Z,101605.91
2023-01-06T03:14:38.578Z,101597.56
2023-01-06T03:17:05.993Z,101592.28
2023-01-06T03:19:33.583Z,101601.88
2023-01-06T03:22:02.814Z,101596.44
2023-01-06T03:24:30.147Z,101591.88
2023-01-06T03:26:59.139Z,101606.72
2023-01-06T03:29:27.616Z,101610.34
2023-01-06T03:32:19.225Z,101612.47
2023-01-06T03:35:05.642Z,101598.06
2023-01-06T03:37:52.705Z,101599.16
2023-01-06T03:40:40.520Z,101590.63
2023-01-06T03:43:34.183Z,101597.13
2023-01-06T03:46:23.877Z,101610.09
2023-01-06T03:48:57.184Z,101597.72
2023-01-06T03:51:47.639Z,101595.09
2023-01-06T03:54:35.480Z,101600.38
2023-01-06T03:57:25.602Z,101601.97
2023-01-06T04:00:00.727Z,101582.38
2023-01-06T04:02:28.595Z,101577.75
2023-01-06T04:05:12.258Z,101566.72
2023-01-06T04:07:42.165Z,101571.53
2023-01-06T04:10:10.907Z,101576.00
2023-01-06T04:12:38.611Z,101568.34
2023-01-06T04:15:12.835Z,101574.59
2023-01-06T04:17:41.545Z,101567.19
2023-01-06T04:20:15.584Z,101558.19
2023-01-06T04:22:43.651Z,101563.03
2023-01-06T04:25:11.779Z,101563.16
2023-01-06T04:27:40.853Z,101564.94
2023-01-06T04:30:08.647Z,101567.25
2023-01-06T04:32:35.998Z,101577.44
2023-01-06T04:35:07.196Z,101566.47
2023-01-06T04:37:35.134Z,101566.16
2023-01-06T04:40:02.449Z,101569.41
2023-01-06T04:42:49.659Z,101563.38
2023-01-06T04:45:17.058Z,101556.50
2023-01-06T04:47:44.281Z,101541.47
2023-01-06T04:50:11.625Z,101541.28
2023-01-06T04:52:39.143Z,101555.34
2023-01-06T04:55:06.564Z,101552.72
2023-01-06T04:57:33.784Z,101546.44
2023-01-06T05:00:01.116Z,101546.59
2023-01-06T05:02:28.365Z,101548.06
2023-01-06T05:04:55.610Z,101535.66
2023-01-06T05:07:22.954Z,101541.69
2023-01-06T05:09:50.312Z,101528.06
2023-01-06T05:12:17.547Z,101534.34
2023-01-06T05:14:44.803Z,101537.47
2023-01-06T05:17:12.169Z,101536.84
2023-01-06T05:19:41.606Z,101529.34
2023-01-06T05:22:08.864Z,101530.41
2023-01-06T05:24:36.082Z,101536.63
2023-01-06T05:27:03.950Z,101546.59
2023-01-06T05:29:31.713Z,101538.38
2023-01-06T05:31:59.113Z,101547.72
2023-01-06T05:34:26.486Z,101547.66
2023-01-06T05:36:53.790Z,101551.81
2023-01-06T05:39:21.192Z,101565.53
2023-01-06T05:41:48.714Z,101566.78
2023-01-06T05:44:15.960Z,101555.41
2023-01-06T05:46:43.177Z,101566.53
2023-01-06T05:49:10.597Z,101565.34
2023-01-06T05:51:37.878Z,101566.53
2023-01-06T05:54:08.671Z,101570.88
2023-01-06T05:56:36.469Z,101571.44
2023-01-06T05:59:04.122Z,101569.66
2023-01-06T06:01:32.420Z,101573.69
2023-01-06T06:04:00.112Z,101565.75
2023-01-06T06:06:29.162Z,101576.53
2023-01-06T06:08:57.170Z,101575.75
2023-01-06T06:11:24.627Z,101569.28
2023-01-06T06:13:53.782Z,101574.25
2023-01-06T06:16:23.609Z,101572.88
2023-01-06T06:18:53.365Z,101579.31
2023-01-06T06:21:26.333Z,101582.25
2023-01-06T06:23:54.892Z,101570.31
2023-01-06T06:26:22.857Z,101572.13
2023-01-06T06:28:50.150Z,101579.16
2023-01-06T06:31:23.272Z,101580.63
2023-01-06T06:33:58.448Z,101576.22
2023-01-06T06:36:26.324Z,101582.56
2023-01-06T06:38:54.319Z,101590.22
2023-01-06T06:41:22.564Z,101583.22
2023-01-06T06:43:50.679Z,101590.59
2023-01-06T06:46:19.085Z,101592.22
2023-01-06T06:48:46.392Z,101598.31
2023-01-06T06:51:17.069Z,101592.84
2023-01-06T06:53:45.393Z,101588.63
2023-01-06T06:56:13.717Z,101599.56
2023-01-06T06:58:41.237Z,101591.28
2023-01-06T07:01:13.730Z,101584.28
2023-01-06T07:03:41.193Z,101586.50
2023-01-06T07:06:10.083Z,101594.69
2023-01-06T07:08:37.569Z,101586.97
2023-01-06T07:11:05.243Z,101594.84
2023-01-06T07:13:32.548Z,101593.97
2023-01-06T07:16:00.114Z,101579.16
2023-01-06T07:18:27.411Z,101601.25
2023-01-06T07:20:54.934Z,101606.31
2023-01-06T07:23:23.129Z,101601.34
2023-01-06T07:25:58.593Z,101608.09
2023-01-06T07:28:27.012Z,101604.84
2023-01-06T07:30:54.443Z,101610.22
2023-01-06T07:33:22.413Z,101606.47
2023-01-06T07:35:58.912Z,101602.66
2023-01-06T07:38:26.526Z,101594.69
2023-01-06T07:40:58.355Z,101598.34
2023-01-06T07:43:25.674Z,101598.16
2023-01-06T07:45:53.147Z,101595.47
2023-01-06T07:48:20.473Z,101596.88
2023-01-06T07:50:47.861Z,101594.94
2023-01-06T07:53:15.173Z,101596.19
2023-01-06T07:55:42.578Z,101595.47
2023-01-06T07:58:10.182Z,101588.16
2023-01-06T08:00:37.614Z,101590.41
2023-01-06T08:03:06.935Z,101592.47
2023-01-06T08:05:38.140Z,101600.84
2023-01-06T08:08:05.571Z,101602.47
2023-01-06T08:10:33.152Z,101599.72
2023-01-06T08:13:00.985Z,101597.13
2023-01-06T08:15:28.232Z,101600.06
2023-01-06T08:17:55.584Z,101598.75
2023-01-06T08:20:23.385Z,101606.44
2023-01-06T08:22:50.911Z,101607.56
2023-01-06T08:25:18.366Z,101611.16
2023-01-06T08:27:45.826Z,101612.13
2023-01-06T08:30:13.401Z,101610.34
2023-01-06T08:32:40.719Z,101603.00
2023-01-06T08:35:08.293Z,101611.34
2023-01-06T08:37:36.127Z,101613.16
2023-01-06T08:40:04.509Z,101607.88
2023-01-06T08:42:31.804Z,101620.53
2023-01-06T08:44:59.634Z,101614.28
2023-01-06T08:47:26.874Z,101623.19
2023-01-06T08:49:54.158Z,101629.84
2023-01-06T08:52:21.533Z,101621.53
2023-01-06T08:54:48.916Z,101615.66
2023-01-06T08:57:16.442Z,101626.72
2023-01-06T08:59:43.818Z,101622.97
2023-01-06T09:02:11.852Z,101619.03
2023-01-06T09:04:39.188Z,101622.72
2023-01-06T09:07:06.628Z,101625.63
2023-01-06T09:09:34.354Z,101622.06
2023-01-06T09:12:01.768Z,101618.66
2023-01-06T09:14:29.945Z,101612.31
2023-01-06T09:16:57.476Z,101626.94
2023-01-06T09:19:24.755Z,101623.88
2023-01-06T09:21:52.028Z,101628.19
2023-01-06T09:24:19.586Z,101624.91
2023-01-06T09:26:46.967Z,101623.28
2023-01-06T09:29:14.241Z,101623.78
2023-01-06T09:31:41.618Z,101626.22
2023-01-06T09:34:09.606Z,101633.91
2023-01-06T09:36:36.893Z,101632.59
2023-01-06T09:39:04.368Z,101632.50
2023-01-06T09:41:44.802Z,101646.47
2023-01-06T09:44:19.658Z,101647.19
2023-01-06T09:46:49.620Z,101641.09
2023-01-06T09:49:28.696Z,101635.19
2023-01-06T09:52:10.626Z,101638.88
2023-01-06T09:54:43.393Z,101639.38
2023-01-06T09:57:25.950Z,101643.63
2023-01-06T10:00:02.404Z,101644.31
2023-01-06T10:02:36.266Z,101645.53
2023-01-06T10:05:25.006Z,101640.28
2023-01-06T10:08:18.884Z,101647.44
2023-01-06T10:11:14.166Z,101641.56
2023-01-06T10:13:51.877Z,101646.84
2023-01-06T10:16:28.685Z,101650.78
2023-01-06T10:19:07.933Z,101647.84
2023-01-06T10:22:11.266Z,101659.13
2023-01-06T10:25:02.332Z,101662.75
2023-01-06T10:27:51.111Z,101661.56
2023-01-06T10:30:21.267Z,101660.91
2023-01-06T10:32:50.167Z,101655.03
2023-01-06T10:35:18.993Z,101662.56
2023-01-06T10:37:48.041Z,101655.91
2023-01-06T10:40:18.398Z,101644.00
2023-01-06T10:43:08.998Z,101653.25
2023-01-06T10:45:40.353Z,101649.38
2023-01-06T10:48:13.614Z,101648.38
2023-01-06T10:50:41.310Z,101646.44
2023-01-06T10:53:11.349Z,101645.25
2023-01-06T10:55:42.726Z,101635.31
2023-01-06T10:58:34.873Z,101630.44
2023-01-06T11:01:12.500Z,101638.09
2023-01-06T11:03:42.899Z,101621.91
2023-01-06T11:06:26.496Z,101618.66
2023-01-06T11:08:54.180Z,101627.44
2023-01-06T11:11:28.190Z,101621.59
2023-01-06T11:13:59.154Z,101619.22
2023-01-06T11:16:28.128Z,101622.13
2023-01-06T11:19:00.831Z,101613.91
2023-01-06T11:21:43.647Z,101610.47
2023-01-06T11:24:23.460Z,101606.22
2023-01-06T11:27:01.766Z,101606.72
2023-01-06T11:29:30.676Z,101599.50
2023-01-06T11:32:02.806Z,101598.69
2023-01-06T11:34:30.986Z,101597.25
2023-01-06T11:36:59.065Z,101606.72
2023-01-06T11:39:35.348Z,101591.81
2023-01-06T11:42:08.797Z,101592.34
2023-01-06T11:44:37.856Z,101592.00
2023-01-06T11:47:26.107Z,101586.91
2023-01-06T11:49:55.557Z,101579.56
2023-01-06T11:52:22.979Z,101578.41
2023-01-06T11:55:12.864Z,101574.13
2023-01-06T11:58:02.442Z,101556.91
2023-01-06T12:00:41.869Z,101554.25
2023-01-06T12:03:34.890Z,101546.94
2023-01-06T12:06:08.157Z,101549.75
2023-01-06T12:08:40.951Z,101559.66
2023-01-06T12:11:15.654Z,101559.13
2023-01-06T12:13:45.035Z,101556.22
2023-01-06T12:16:57.401Z,101539.66
2023-01-06T12:19:37.137Z,101533.38
2023-01-06T12:22:04.803Z,101532.34
2023-01-06T12:24:33.419Z,101532.16
2023-01-06T12:27:04.980Z,101522.44
2023-01-06T12:29:33.717Z,101527.13
2023-01-06T12:32:09.077Z,101517.34
2023-01-06T12:34:39.021Z,101503.19
2023-01-06T12:37:09.339Z,101515.94
2023-01-06T12:39:51.944Z,101510.22
2023-01-06T12:42:45.524Z,101499.25
2023-01-06T12:45:16.920Z,101510.22
2023-01-06T12:47:54.140Z,101494.06
2023-01-06T12:50:28.094Z,101494.66
2023-01-06T12:53:04.800Z,101493.53
2023-01-06T12:56:00.961Z,101488.72
2023-01-06T12:58:44.037Z,101487.59
2023-01-06T13:01:36.763Z,101484.34
2023-01-06T13:04:22.513Z,101481.69
2023-01-06T13:07:11.911Z,101480.94
2023-01-06T13:09:42.115Z,101475.94
2023-01-06T13:12:24.412Z,101479.94
2023-01-06T13:14:54.726Z,101481.03
2023-01-06T13:17:49.444Z,101473.06
2023-01-06T13:20:22.103Z,101479.47
2023-01-06T13:23:08.850Z,101470.34
2023-01-06T13:25:51.372Z,101477.09
2023-01-06T13:28:32.100Z,101473.22
2023-01-06T13:31:06.924Z,101476.00
2023-01-06T13:33:43.441Z,101476.00
2023-01-06T13:36:37.049Z,101480.81
2023-01-06T13:39:05.732Z,101478.34
2023-01-06T13:41:37.575Z,101467.28
2023-01-06T13:44:12.653Z,101467.94
2023-01-06T13:46:40.483Z,101473.16
2023-01-06T13:49:07.878Z,101470.34
2023-01-06T13:51:37.201Z,101465.13
2023-01-06T13:54:04.857Z,101463.56
2023-01-06T13:56:34.041Z,101454.75
2023-01-06T13:59:21.331Z,101458.72
2023-01-06T14:01:49.268Z,101453.69
2023-01-06T14:04:37.112Z,101449.09
2023-01-06T14:07:05.100Z,101453.09
2023-01-06T14:09:36.765Z,101453.09
2023-01-06T14:12:09.332Z,101454.47
2023-01-06T14:14:39.000Z,101456.91
2023-01-06T14:17:06.481Z,101459.06
2023-01-06T14:19:37.194Z,101451.53
2023-01-06T14:22:19.671Z,101447.38
2023-01-06T14:24:52.165Z,101445.84
2023-01-06T14:27:47.562Z,101447.75
2023-01-06T14:30:21.943Z,101450.75
2023-01-06T14:32:49.180Z,101438.78
2023-01-06T14:35:19.378Z,101450.25
2023-01-06T14:37:50.740Z,101451.41
2023-01-06T14:40:30.424Z,101456.13
2023-01-06T14:42:59.816Z,101451.53
2023-01-06T14:45:29.626Z,101461.97
2023-01-06T14:48:02.058Z,101445.78
2023-01-06T14:50:42.096Z,101452.78
2023-01-06T14:53:23.516Z,101447.31
2023-01-06T14:55:51.048Z,101448.16
2023-01-06T14:58:32.801Z,101438.66
2023-01-06T15:01:00.954Z,101439.88
2023-01-06T15:03:28.796Z,101443.72
2023-01-06T15:06:20.037Z,101441.56
2023-01-06T15:08:47.903Z,101443.25
2023-01-06T15:11:27.709Z,101447.75
2023-01-06T15:13:56.000Z,101460.75
2023-01-06T15:16:38.861Z,101458.25
2023-01-06T15:19:07.847Z,101450.09
2023-01-06T15:21:43.948Z,101445.91
2023-01-06T15:24:35.431Z,101443.31
2023-01-06T15:27:05.610Z,101445.41
2023-01-06T15:29:33.096Z,101439.09
2023-01-06T15:32:01.384Z,101437.44
2023-01-06T15:34:35.726Z,101439.56
2023-01-06T15:37:05.173Z,101432.75
2023-01-06T15:39:33.495Z,101440.72
2023-01-06T15:42:02.429Z,101442.59
2023-01-06T15:44:31.861Z,101431.06
2023-01-06T15:47:11.400Z,101443.91
2023-01-06T15:49:41.683Z,101443.31
2023-01-06T15:52:17.985Z,101439.16
2023-01-06T15:54:46.310Z,101445.69
2023-01-06T15:57:17.212Z,101434.84
2023-01-06T15:59:57.284Z,101428.72
2023-01-06T16:02:26.852Z,101438.09
2023-01-06T16:04:54.552Z,101431.28
2023-01-06T16:07:43.291Z,101443.50
2023-01-06T16:10:33.958Z,101434.47
2023-01-06T16:13:20.600Z,101431.00
2023-01-06T16:15:59.037Z,101427.09
2023-01-06T16:18:29.530Z,101435.00
2023-01-06T16:20:57.644Z,101427.28
2023-01-06T16:23:34.151Z,101423.94
2023-01-06T16:26:16.095Z,101432.53
2023-01-06T16:28:52.002Z,101423.78
2023-01-06T16:31:36.966Z,101420.31
2023-01-06T16:34:22.761Z,101419.84
2023-01-06T16:36:51.410Z,101422.16
2023-01-06T16:39:18.798Z,101412.38
2023-01-06T16:42:01.372Z,101419.34
2023-01-06T16:44:30.244Z,101413.53
2023-01-06T16:46:58.318Z,101411.38
2023-01-06T16:49:25.617Z,101409.13
2023-01-06T16:51:54.470Z,101402.88
2023-01-06T16:54:23.349Z,101403.13
2023-01-06T16:56:52.450Z,101398.19
2023-01-06T16:59:20.529Z,101396.72
2023-01-06T17:01:48.562Z,101394.81
2023-01-06T17:04:15.960Z,101399.75
2023-01-06T17:06:44.427Z,101392.97
2023-01-06T17:09:20.894Z,101386.03
2023-01-06T17:11:52.875Z,101390.34
2023-01-06T17:14:22.453Z,101385.28
2023-01-06T17:16:52.866Z,101392.28
2023-01-06T17:19:28.958Z,101393.28
2023-01-06T17:22:20.657Z,101397.22
2023-01-06T17:24:47.934Z,101393.66
2023-01-06T17:27:15.118Z,101400.81
2023-01-06T17:29:42.505Z,101404.41
2023-01-06T17:32:33.020Z,101399.69
2023-01-06T17:35:00.852Z,101393.72
2023-01-06T17:37:30.080Z,101395.47
2023-01-06T17:39:57.531Z,101397.75
2023-01-06T17:42:32.384Z,101408.34
2023-01-06T17:45:00.448Z,101403.41
2023-01-06T17:47:40.682Z,101417.19
2023-01-06T17:50:26.565Z,101420.97
2023-01-06T17:53:24.580Z,101425.19
2023-01-06T17:55:51.980Z,101425.81
2023-01-06T17:58:22.794Z,101428.44
2023-01-06T18:00:50.087Z,101428.44
2023-01-06T18:03:24.338Z,101433.66
2023-01-06T18:06:01.136Z,101436.44
2023-01-06T18:08:30.796Z,101436.66
2023-01-06T18:11:06.003Z,101442.34
2023-01-06T18:13:40.227Z,101443.16
2023-01-06T18:16:27.329Z,101448.50
2023-01-06T18:19:01.915Z,101448.94
2023-01-06T18:21:37.703Z,101454.28
2023-01-06T18:24:30.823Z,101444.16
2023-01-06T18:27:12.109Z,101438.63
2023-01-06T18:29:41.289Z,101444.84
2023-01-06T18:32:20.447Z,101444.78
2023-01-06T18:35:09.658Z,101450.38
2023-01-06T18:37:37.727Z,101447.94
2023-01-06T18:40:08.117Z,101450.53
2023-01-06T18:42:37.670Z,101457.06
2023-01-06T18:45:07.993Z,101452.50
2023-01-06T18:47:38.069Z,101452.97
2023-01-06T18:50:28.732Z,101457.19
2023-01-06T18:52:58.233Z,101453.75
2023-01-06T18:55:35.468Z,101455.56
2023-01-06T18:58:12.024Z,101456.25
2023-01-06T19:00:41.547Z,101463.09
2023-01-06T19:03:42.102Z,101458.53
2023-01-06T19:06:09.267Z,101461.81
2023-01-06T19:08:38.812Z,101454.47
2023-01-06T19:11:20.357Z,101452.34
2023-01-06T19:13:48.342Z,101452.34
2023-01-06T19:16:38.542Z,101456.75
2023-01-06T19:19:20.039Z,101448.91
2023-01-06T19:21:47.263Z,101448.91
2023-01-06T19:24:26.788Z,101450.75
2023-01-06T19:26:55.239Z,101448.53
2023-01-06T19:29:33.312Z,101459.81
2023-01-06T19:32:04.314Z,101457.38
2023-01-06T19:34:31.651Z,101458.53
2023-01-06T19:36:59.189Z,101453.13
2023-01-06T19:39:36.669Z,101449.22
2023-01-06T19:42:19.943Z,101459.38
2023-01-06T19:44:49.351Z,101447.75
2023-01-06T19:47:19.540Z,101447.03
2023-01-06T19:49:52.836Z,101447.44
2023-01-06T19:52:39.693Z,101433.22
2023-01-06T19:55:26.225Z,101443.69
2023-01-06T19:57:56.429Z,101439.44
2023-01-06T20:00:25.106Z,101439.28
2023-01-06T20:02:55.976Z,101438.13
2023-01-06T20:05:25.017Z,101430.13
2023-01-06T20:07:52.306Z,101427.53
2023-01-06T20:10:20.709Z,101422.63
2023-01-06T20:12:48.772Z,101423.25
2023-01-06T20:15:16.559Z,101421.63
2023-01-06T20:17:43.818Z,101415.59
2023-01-06T20:20:11.598Z,101416.41
2023-01-06T20:22:38.969Z,101420.19
2023-01-06T20:25:06.799Z,101421.81
2023-01-06T20:27:35.157Z,101418.38
2023-01-06T20:30:02.456Z,101413.66
2023-01-06T20:32:29.806Z,101421.09
2023-01-06T20:34:57.576Z,101421.63
2023-01-06T20:37:24.814Z,101418.53
2023-01-06T20:39:52.627Z,101422.75
2023-01-06T20:42:21.378Z,101411.53
2023-01-06T20:44:48.636Z,101418.03
2023-01-06T20:47:16.034Z,101408.06
2023-01-06T20:49:43.453Z,101408.56
2023-01-06T20:52:10.724Z,101401.56
2023-01-06T20:54:38.121Z,101402.22
2023-01-06T20:57:06.011Z,101412.03
2023-01-06T20:59:33.246Z,101402.88
2023-01-06T21:02:00.695Z,101395.03
2023-01-06T21:04:28.129Z,101397.00
2023-01-06T21:06:55.454Z,101398.47
2023-01-06T21:09:22.797Z,101384.25
2023-01-06T21:11:50.076Z,101390.31
2023-01-06T21:14:17.226Z,101387.84
2023-01-06T21:16:44.556Z,101386.88
2023-01-06T21:19:11.937Z,101377.44
2023-01-06T21:21:39.280Z,101384.38
2023-01-06T21:24:06.764Z,101385.97
2023-01-06T21:26:34.022Z,101391.28
2023-01-06T21:29:01.336Z,101379.69
2023-01-06T21:31:28.624Z,101388.03
2023-01-06T21:33:55.861Z,101381.47
2023-01-06T21:36:23.130Z,101381.13
2023-01-06T21:38:50.416Z,101385.25
2023-01-06T21:41:36.243Z,101377.25
2023-01-06T21:44:03.603Z,101375.56
2023-01-06T21:46:32.181Z,101376.59
2023-01-06T21:48:59.553Z,101377.69
2023-01-06T21:51:26.858Z,101371.66
2023-01-06T21:53:54.196Z,101372.34
2023-01-06T21:56:21.563Z,101373.50
2023-01-06T21:58:49.107Z,101377.56
2023-01-06T22:01:18.427Z,101370.22
2023-01-06T22:03:45.766Z,101371.22
2023-01-06T22:06:13.180Z,101372.81
2023-01-06T22:08:40.713Z,101381.13
2023-01-06T22:11:08.028Z,101373.31
2023-01-06T22:13:35.537Z,101370.06
2023-01-06T22:16:02.867Z,101372.00
2023-01-06T22:18:30.163Z,101381.34
2023-01-06T22:20:58.361Z,101374.81
2023-01-06T22:23:25.651Z,101374.47
2023-01-06T22:25:53.079Z,101369.09
2023-01-06T22:28:20.408Z,101372.03
2023-01-06T22:30:47.616Z,101364.41
2023-01-06T22:33:18.040Z,101365.19
2023-01-06T22:35:46.675Z,101359.66
2023-01-06T22:38:14.165Z,101363.75
2023-01-06T22:40:41.838Z,101364.63
2023-01-06T22:43:09.004Z,101363.56
2023-01-06T22:45:36.517Z,101356.34
2023-01-06T22:48:03.859Z,101349.34
2023-01-06T22:50:31.143Z,101350.66
2023-01-06T22:52:58.500Z,101343.97
2023-01-06T22:55:25.979Z,101342.16
2023-01-06T22:57:53.259Z,101337.28
2023-01-06T23:00:20.611Z,101337.94
2023-01-06T23:02:48.063Z,101338.25
2023-01-06T23:05:15.601Z,101344.28
2023-01-06T23:07:43.788Z,101336.28
2023-01-06T23:10:13.627Z,101328.63
2023-01-06T23:12:42.054Z,101332.84
2023-01-06T23:15:09.852Z,101321.78
2023-01-06T23:17:38.002Z,101322.75
2023-01-06T23:20:06.142Z,101325.19
2023-01-06T23:22:33.444Z,101326.50
2023-01-06T23:25:00.691Z,101327.56
2023-01-06T23:27:29.853Z,101317.88
2023-01-06T23:29:58.416Z,101321.78
2023-01-06T23:32:25.688Z,101305.78
2023-01-06T23:34:52.981Z,101314.44
2023-01-06T23:37:20.400Z,101309.56
2023-01-06T23:39:48.040Z,101309.19
2023-01-06T23:42:15.366Z,101297.31
2023-01-06T23:44:42.644Z,101300.41
2023-01-06T23:47:09.887Z,101300.25
2023-01-06T23:49:37.158Z,101290.25
2023-01-06T23:52:04.547Z,101290.59
2023-01-06T23:54:31.796Z,101287.22
2023-01-06T23:56:58.984Z,101285.25
2023-01-06T23:59:26.265Z,101277.25
